Time;durP1;ratioP1;P1;durP2;ratioP2;P2;SDS_P1;SDS_P2;PMS_P1;PMS_P2;Temp;Humidity;BMP_temperature;BMP_pressure;BME280_temperature;BME280_humidity;BME280_pressure;Samples;Min_cycle;Max_cycle;Signal;HPM_P1;HPM_P2
2022/03/24 00:02:03;;;;;;;1.50;1.20;;;7.60;86.90;;;;;;5047494;28;20991;-72
2022/03/24 00:04:30;;;;;;;1.50;1.30;;;7.60;87.30;;;;;;5049512;28;20863;-72
2022/03/24 00:06:58;;;;;;;1.50;1.40;;;7.60;87.30;;;;;;5049577;28;20473;-72
2022/03/24 00:09:25;;;;;;;1.50;1.30;;;7.50;87.00;;;;;;5047822;28;20965;-73
2022/03/24 00:11:51;;;;;;;1.50;1.17;;;7.50;87.10;;;;;;5047523;28;20458;-72
2022/03/24 00:14:18;;;;;;;1.50;1.27;;;7.50;87.30;;;;;;5049550;28;21350;-73
2022/03/24 00:16:45;;;;;;;1.50;1.30;;;7.40;87.30;;;;;;5049625;28;20462;-72
2022/03/24 00:19:12;;;;;;;1.50;1.30;;;7.40;87.60;;;;;;5049362;28;20467;-72
2022/03/24 00:21:39;;;;;;;1.50;1.27;;;7.40;88.20;;;;;;5041041;28;20462;-72
2022/03/24 00:24:08;;;;;;;1.50;1.30;;;7.40;88.40;;;;;;5048058;28;20616;-73
2022/03/24 00:26:34;;;;;;;1.50;1.20;;;7.40;88.50;;;;;;5049157;28;20986;-72
2022/03/24 00:29:02;;;;;;;1.50;1.30;;;7.40;88.30;;;;;;5049339;28;20950;-72
2022/03/24 00:31:29;;;;;;;1.50;1.33;;;7.30;88.40;;;;;;5046765;28;20541;-73
2022/03/24 00:33:56;;;;;;;1.50;1.30;;;7.30;88.20;;;;;;5049334;28;20462;-72
2022/03/24 00:36:23;;;;;;;1.50;1.40;;;7.30;87.90;;;;;;5049099;28;20451;-72
2022/03/24 00:38:52;;;;;;;1.50;1.20;;;7.30;87.50;;;;;;5048222;28;20509;-72
2022/03/24 00:41:21;;;;;;;1.50;1.30;;;7.30;87.50;;;;;;5046630;28;20461;-72
2022/03/24 00:43:48;;;;;;;1.50;1.30;;;7.30;87.60;;;;;;5049063;28;20486;-73
2022/03/24 00:46:15;;;;;;;1.50;1.27;;;7.20;87.80;;;;;;5049089;28;20512;-72
2022/03/24 00:48:42;;;;;;;2.07;1.90;;;7.20;87.80;;;;;;5047600;28;20498;-72
2022/03/24 00:51:09;;;;;;;1.50;1.30;;;7.20;88.00;;;;;;5047192;28;20458;-73
2022/03/24 00:53:36;;;;;;;1.50;1.30;;;7.10;87.80;;;;;;5044641;28;20462;-73
2022/03/24 00:56:03;;;;;;;1.50;1.30;;;7.10;87.70;;;;;;5047535;28;20486;-72
2022/03/24 00:58:31;;;;;;;1.50;1.33;;;7.10;87.90;;;;;;5048593;28;20475;-72
2022/03/24 01:00:58;;;;;;;1.50;1.30;;;7.00;88.60;;;;;;5046142;28;20462;-73
2022/03/24 01:03:25;;;;;;;1.50;1.40;;;7.00;88.40;;;;;;5047684;28;20498;-73
2022/03/24 01:05:52;;;;;;;1.50;1.30;;;7.00;88.80;;;;;;5047605;28;20490;-73
2022/03/24 01:08:19;;;;;;;1.50;1.30;;;7.00;88.70;;;;;;5045763;28;20885;-73
2022/03/24 01:10:47;;;;;;;1.50;1.30;;;6.90;88.80;;;;;;5047413;28;20531;-73
2022/03/24 01:13:15;;;;;;;1.50;1.37;;;6.90;88.60;;;;;;5047255;28;20834;-72
2022/03/24 01:15:45;;;;;;;1.50;1.30;;;6.90;89.00;;;;;;5047096;28;20478;-72
2022/03/24 01:18:13;;;;;;;1.50;1.40;;;6.80;89.70;;;;;;5047811;28;20549;-72
2022/03/24 01:20:42;;;;;;;1.50;1.30;;;6.80;89.20;;;;;;5045753;28;20470;-73
2022/03/24 01:23:11;;;;;;;1.50;1.30;;;6.80;89.50;;;;;;5044389;28;20514;-73
2022/03/24 01:25:37;;;;;;;1.50;1.30;;;6.70;89.80;;;;;;5047430;28;20488;-72
2022/03/24 01:28:04;;;;;;;1.50;1.30;;;6.70;89.40;;;;;;5046975;28;20465;-72
2022/03/24 01:30:31;;;;;;;1.50;1.30;;;6.70;89.10;;;;;;5045867;28;20462;-73
2022/03/24 01:33:00;;;;;;;1.50;1.40;;;6.70;89.50;;;;;;5047405;28;20871;-72
2022/03/24 01:35:26;;;;;;;1.50;1.40;;;6.60;89.90;;;;;;5047242;28;20990;-72
2022/03/24 01:37:53;;;;;;;1.50;1.30;;;6.60;89.40;;;;;;5047800;28;20837;-73
2022/03/24 01:40:20;;;;;;;1.50;1.30;;;6.60;89.50;;;;;;5046361;28;20481;-73
2022/03/24 01:42:47;;;;;;;1.50;1.30;;;6.60;89.80;;;;;;5046889;28;20997;-72
2022/03/24 01:45:15;;;;;;;1.50;1.40;;;6.50;90.20;;;;;;5046997;28;20482;-72
2022/03/24 01:47:42;;;;;;;1.50;1.30;;;6.50;90.60;;;;;;5047499;28;20516;-72
2022/03/24 01:50:12;;;;;;;1.50;1.30;;;6.50;90.00;;;;;;5043969;28;20466;-72
2022/03/24 01:52:39;;;;;;;1.50;1.30;;;6.40;90.20;;;;;;5046442;28;20512;-72
2022/03/24 01:55:07;;;;;;;1.50;1.40;;;6.40;90.60;;;;;;5009151;28;1095899;-72
2022/03/24 01:57:35;;;;;;;1.50;1.30;;;6.40;90.20;;;;;;5048487;28;20466;-72
2022/03/24 02:00:03;;;;;;;1.50;1.30;;;6.40;90.80;;;;;;5047373;28;20462;-73
2022/03/24 02:02:29;;;;;;;1.50;1.30;;;6.30;91.10;;;;;;5046863;28;20458;-73
2022/03/24 02:04:56;;;;;;;1.60;1.50;;;6.30;91.10;;;;;;5048607;28;20482;-72
2022/03/24 02:07:24;;;;;;;1.50;1.30;;;6.30;91.90;;;;;;5036082;28;20498;-72
2022/03/24 02:09:51;;;;;;;1.50;1.30;;;6.30;92.60;;;;;;5047596;28;20467;-73
2022/03/24 02:12:18;;;;;;;1.60;1.43;;;6.30;92.70;;;;;;5046394;28;20462;-72
2022/03/24 02:14:45;;;;;;;1.90;1.30;;;6.30;93.00;;;;;;5046486;28;20482;-73
2022/03/24 02:17:12;;;;;;;1.57;1.40;;;6.20;92.30;;;;;;5047820;28;20489;-73
2022/03/24 02:19:40;;;;;;;1.50;1.40;;;6.20;91.60;;;;;;5046982;28;20458;-73
2022/03/24 02:22:12;;;;;;;1.60;1.40;;;6.20;91.80;;;;;;5043532;28;20470;-72
2022/03/24 02:24:39;;;;;;;1.50;1.30;;;6.20;92.20;;;;;;5047895;28;20565;-72
2022/03/24 02:27:06;;;;;;;1.50;1.30;;;6.10;92.30;;;;;;5051538;28;20465;-72
2022/03/24 02:29:33;;;;;;;1.50;1.30;;;6.10;92.50;;;;;;5050098;28;20960;-72
2022/03/24 02:32:01;;;;;;;2.57;2.37;;;6.00;92.60;;;;;;5049197;28;20462;-72
2022/03/24 02:34:47;;;;;;;1.60;1.50;;;6.00;92.60;;;;;;5048023;28;20470;-73
2022/03/24 02:37:19;;;;;;;1.60;1.30;;;6.00;93.30;;;;;;5047532;28;20466;-73
2022/03/24 02:39:47;;;;;;;1.50;1.40;;;6.00;93.90;;;;;;5050844;28;20508;-72
2022/03/24 02:42:16;;;;;;;1.50;1.30;;;5.90;93.40;;;;;;5037648;28;21000;-73
2022/03/24 02:44:44;;;;;;;1.53;1.40;;;5.90;93.80;;;;;;5049495;28;20494;-72
2022/03/24 02:47:12;;;;;;;1.50;1.33;;;5.90;93.60;;;;;;5050458;28;20832;-73
2022/03/24 02:49:41;;;;;;;1.50;1.40;;;5.90;93.60;;;;;;5050712;28;20461;-73
2022/03/24 02:52:09;;;;;;;1.50;1.30;;;5.90;93.30;;;;;;5047957;28;20465;-72
2022/03/24 02:54:37;;;;;;;1.50;1.30;;;5.80;94.10;;;;;;5049952;28;21050;-73
2022/03/24 02:57:05;;;;;;;1.50;1.30;;;5.80;94.60;;;;;;5044455;28;20473;-73
2022/03/24 02:59:32;;;;;;;1.50;1.30;;;5.80;94.70;;;;;;5050146;28;20466;-72
2022/03/24 03:02:00;;;;;;;1.50;1.30;;;5.80;94.00;;;;;;5050106;28;20458;-72
2022/03/24 03:04:27;;;;;;;1.50;1.30;;;5.80;93.10;;;;;;5050862;28;20502;-72
2022/03/24 03:06:54;;;;;;;1.50;1.40;;;5.80;93.60;;;;;;5050124;28;20462;-72
2022/03/24 03:09:23;;;;;;;1.53;1.30;;;5.80;94.10;;;;;;5048907;28;20552;-73
2022/03/24 03:11:52;;;;;;;1.50;1.30;;;5.70;93.80;;;;;;5049520;28;20967;-73
2022/03/24 03:14:19;;;;;;;1.50;1.30;;;5.70;94.10;;;;;;5050984;28;20963;-72
2022/03/24 03:16:47;;;;;;;1.50;1.30;;;5.70;95.20;;;;;;5050578;28;20473;-72
2022/03/24 03:19:17;;;;;;;1.50;1.40;;;5.70;95.70;;;;;;5049982;28;20466;-73
2022/03/24 03:21:44;;;;;;;1.50;1.30;;;5.60;96.90;;;;;;5049593;28;20497;-72
2022/03/24 03:24:12;;;;;;;1.50;1.30;;;5.60;96.40;;;;;;5049774;28;20560;-73
2022/03/24 03:26:39;;;;;;;1.50;1.40;;;5.60;96.70;;;;;;5050203;28;20487;-72
2022/03/24 03:29:08;;;;;;;1.50;1.30;;;5.60;96.40;;;;;;5051085;28;20477;-73
2022/03/24 03:31:35;;;;;;;1.53;1.40;;;5.50;97.50;;;;;;5049353;28;20544;-72
2022/03/24 03:34:02;;;;;;;1.60;1.40;;;5.50;97.40;;;;;;5050760;28;20470;-73
2022/03/24 03:36:30;;;;;;;1.50;1.30;;;5.50;97.00;;;;;;5049553;28;20462;-73
2022/03/24 03:38:58;;;;;;;1.50;1.33;;;5.50;96.50;;;;;;5049952;28;20458;-72
2022/03/24 03:41:24;;;;;;;1.57;1.47;;;5.50;96.10;;;;;;5048496;28;20463;-73
2022/03/24 03:43:51;;;;;;;1.50;1.30;;;5.50;98.20;;;;;;5050596;28;20493;-73
2022/03/24 03:46:19;;;;;;;1.50;1.40;;;5.50;98.20;;;;;;5049377;28;20488;-73
2022/03/24 03:48:47;;;;;;;1.50;1.30;;;5.50;97.00;;;;;;5049056;28;20455;-73
2022/03/24 03:51:14;;;;;;;1.50;1.30;;;5.60;97.10;;;;;;5047353;28;20486;-72
2022/03/24 03:53:41;;;;;;;1.50;1.40;;;5.60;96.50;;;;;;5047362;28;20961;-73
2022/03/24 03:56:09;;;;;;;1.50;1.30;;;5.60;96.50;;;;;;5049094;28;20577;-73
2022/03/24 03:58:36;;;;;;;2.37;2.00;;;5.50;97.10;;;;;;5049618;28;20458;-72
2022/03/24 04:01:04;;;;;;;1.60;1.50;;;5.50;96.90;;;;;;5048189;28;20458;-73
2022/03/24 04:03:34;;;;;;;1.50;1.30;;;5.50;97.00;;;;;;5050356;28;20489;-72
2022/03/24 04:06:04;;;;;;;1.50;1.30;;;5.50;96.70;;;;;;5049013;28;20478;-73
2022/03/24 04:08:32;;;;;;;1.50;1.30;;;5.50;96.40;;;;;;5050398;28;20466;-73
2022/03/24 04:11:00;;;;;;;1.60;1.50;;;5.50;95.70;;;;;;5046249;28;20486;-73
2022/03/24 04:13:28;;;;;;;1.50;1.40;;;5.50;95.20;;;;;;5049682;28;20504;-72
2022/03/24 04:15:55;;;;;;;1.50;1.30;;;5.40;95.70;;;;;;5049464;28;20489;-72
2022/03/24 04:18:23;;;;;;;1.57;1.30;;;5.40;94.70;;;;;;5048703;28;20466;-72
2022/03/24 04:20:52;;;;;;;1.50;1.30;;;5.40;95.60;;;;;;5048176;28;20458;-72
2022/03/24 04:23:19;;;;;;;1.50;1.33;;;5.30;94.50;;;;;;5044004;28;21011;-73
2022/03/24 04:25:46;;;;;;;1.53;1.43;;;5.30;96.70;;;;;;5048251;28;20486;-72
2022/03/24 04:28:13;;;;;;;1.50;1.40;;;5.20;97.30;;;;;;5049134;28;20898;-72
2022/03/24 04:30:40;;;;;;;1.50;1.40;;;5.30;96.60;;;;;;5047950;28;20477;-72
2022/03/24 04:33:07;;;;;;;1.50;1.30;;;5.20;96.60;;;;;;5049073;28;20681;-72
2022/03/24 04:35:35;;;;;;;1.50;1.40;;;5.20;96.00;;;;;;5049629;28;20874;-72
2022/03/24 04:38:04;;;;;;;1.53;1.40;;;5.20;96.80;;;;;;5047514;28;20462;-72
2022/03/24 04:40:32;;;;;;;2.90;2.70;;;5.20;97.60;;;;;;5041331;28;20532;-72
2022/03/24 04:42:59;;;;;;;1.60;1.50;;;5.20;97.50;;;;;;5041253;28;20463;-72
2022/03/24 04:45:27;;;;;;;1.57;1.30;;;5.20;97.50;;;;;;5047646;28;20493;-72
2022/03/24 04:47:54;;;;;;;1.53;1.40;;;5.20;96.00;;;;;;5048369;28;20464;-72
2022/03/24 04:50:21;;;;;;;1.50;1.33;;;5.10;95.80;;;;;;5047508;28;20477;-74
2022/03/24 04:52:48;;;;;;;1.50;1.40;;;5.10;96.10;;;;;;5044597;28;20465;-72
2022/03/24 04:55:16;;;;;;;1.50;1.30;;;5.10;95.40;;;;;;5044894;28;20489;-72
2022/03/24 04:57:43;;;;;;;1.50;1.30;;;5.10;96.50;;;;;;5048682;28;20964;-72
2022/03/24 05:00:11;;;;;;;1.50;1.37;;;5.10;96.40;;;;;;5047784;28;20671;-72
2022/03/24 05:02:39;;;;;;;1.60;1.47;;;5.00;96.10;;;;;;5047729;28;20465;-73
2022/03/24 05:05:07;;;;;;;7.03;6.30;;;5.00;96.20;;;;;;5047974;28;20489;-72
2022/03/24 05:07:34;;;;;;;1.53;1.40;;;4.90;96.10;;;;;;5042319;28;20986;-72
2022/03/24 05:10:01;;;;;;;1.53;1.30;;;4.90;96.80;;;;;;5047716;28;20465;-72
2022/03/24 05:12:30;;;;;;;1.53;1.40;;;4.90;97.30;;;;;;5046562;28;20836;-73
2022/03/24 05:14:56;;;;;;;3.33;3.03;;;4.90;96.70;;;;;;5048373;28;20505;-72
2022/03/24 05:17:23;;;;;;;1.60;1.50;;;4.90;96.90;;;;;;5047791;28;20465;-71
2022/03/24 05:19:52;;;;;;;1.50;1.30;;;4.80;97.70;;;;;;5047375;28;20545;-72
2022/03/24 05:22:19;;;;;;;1.50;1.30;;;4.80;98.20;;;;;;5045807;28;20994;-71
2022/03/24 05:24:46;;;;;;;1.53;1.30;;;4.80;98.20;;;;;;5047468;28;20493;-74
2022/03/24 05:27:13;;;;;;;1.57;1.43;;;4.80;97.80;;;;;;5047968;28;21140;-74
2022/03/24 05:29:41;;;;;;;1.50;1.30;;;4.80;97.80;;;;;;5046942;28;20465;-75
2022/03/24 05:32:09;;;;;;;1.50;1.40;;;4.80;97.50;;;;;;5047214;28;20509;-74
2022/03/24 05:34:36;;;;;;;1.50;1.30;;;4.80;98.10;;;;;;5048209;28;20489;-74
2022/03/24 05:37:03;;;;;;;1.57;1.40;;;4.80;98.20;;;;;;5047921;28;20463;-74
2022/03/24 05:39:29;;;;;;;1.60;1.30;;;4.80;98.20;;;;;;5047256;28;20467;-73
2022/03/24 05:41:57;;;;;;;1.50;1.40;;;4.80;98.20;;;;;;5045999;28;21025;-73
2022/03/24 05:44:24;;;;;;;1.53;1.33;;;4.80;98.20;;;;;;5046272;28;20556;-73
2022/03/24 05:46:52;;;;;;;1.50;1.30;;;4.70;98.20;;;;;;5043327;28;20462;-72
2022/03/24 05:49:21;;;;;;;1.50;1.30;;;4.70;98.20;;;;;;5047476;28;20458;-72
2022/03/24 05:54:41;;;;;;;1.57;1.40;;;4.80;98.20;;;;;;5040518;28;20561;-73
2022/03/24 05:57:10;;;;;;;1.50;1.40;;;4.80;98.20;;;;;;5042994;28;20960;-73
2022/03/24 05:59:37;;;;;;;1.50;1.30;;;4.90;98.20;;;;;;5040108;28;20466;-73
2022/03/24 06:02:06;;;;;;;1.50;1.40;;;4.90;98.20;;;;;;5042296;28;20893;-74
2022/03/24 06:04:33;;;;;;;1.57;1.40;;;4.90;98.20;;;;;;5044985;28;20497;-73
2022/03/24 06:07:01;;;;;;;1.50;1.30;;;4.90;98.20;;;;;;5049088;28;20942;-74
2022/03/24 06:09:28;;;;;;;1.57;1.40;;;5.00;98.20;;;;;;5047957;28;20466;-74
2022/03/24 06:11:56;;;;;;;1.50;1.30;;;5.00;98.20;;;;;;5046852;28;20477;-73
2022/03/24 06:14:23;;;;;;;1.50;1.30;;;5.00;98.20;;;;;;5048614;28;20474;-72
2022/03/24 06:16:49;;;;;;;1.50;1.40;;;5.10;98.20;;;;;;5049037;28;20466;-71
2022/03/24 06:19:18;;;;;;;1.57;1.40;;;5.10;98.20;;;;;;5048807;28;20549;-72
2022/03/24 06:21:45;;;;;;;1.57;1.43;;;5.20;98.20;;;;;;5046225;28;20947;-72
2022/03/24 06:24:13;;;;;;;1.50;1.30;;;5.30;98.20;;;;;;5050293;28;20486;-74
2022/03/24 06:26:40;;;;;;;1.50;1.40;;;5.50;98.20;;;;;;5053382;28;20466;-77
2022/03/24 06:29:11;;;;;;;1.50;1.40;;;5.60;98.20;;;;;;5053714;28;20969;-74
2022/03/24 06:31:38;;;;;;;1.50;1.40;;;5.70;98.20;;;;;;5050464;28;20458;-74
2022/03/24 06:34:05;;;;;;;1.53;1.40;;;5.90;98.20;;;;;;5052643;28;20465;-75
2022/03/24 06:36:33;;;;;;;1.50;1.40;;;6.10;98.20;;;;;;5050615;28;20490;-77
2022/03/24 06:39:00;;;;;;;1.50;1.30;;;6.30;98.20;;;;;;5050273;28;20477;-73
2022/03/24 06:41:27;;;;;;;1.50;1.30;;;6.50;98.20;;;;;;5048211;28;20548;-74
2022/03/24 06:43:56;;;;;;;1.50;1.30;;;6.70;98.20;;;;;;5049232;28;20829;-73
2022/03/24 06:46:23;;;;;;;1.57;1.40;;;6.90;98.20;;;;;;5049558;28;20530;-74
2022/03/24 06:48:49;;;;;;;1.50;1.40;;;7.00;98.20;;;;;;5046837;28;21043;-72
2022/03/24 06:51:17;;;;;;;1.50;1.20;;;7.20;97.70;;;;;;5046975;28;20458;-72
2022/03/24 06:53:46;;;;;;;1.50;1.30;;;7.40;97.50;;;;;;5048865;28;20463;-73
2022/03/24 06:56:13;;;;;;;1.50;1.20;;;7.60;96.70;;;;;;5049032;28;20478;-74
2022/03/24 06:58:39;;;;;;;1.50;1.27;;;7.70;95.70;;;;;;5050207;28;20524;-73
2022/03/24 07:01:06;;;;;;;2.93;2.73;;;7.90;95.60;;;;;;5047719;28;20496;-72
2022/03/24 07:03:33;;;;;;;1.50;1.30;;;8.00;94.60;;;;;;5049674;28;20494;-73
2022/03/24 07:06:01;;;;;;;1.50;1.30;;;8.20;94.60;;;;;;5048214;28;20793;-74
2022/03/24 07:08:28;;;;;;;1.50;1.30;;;8.30;94.40;;;;;;5050078;28;20784;-73
2022/03/24 07:10:56;;;;;;;1.53;1.30;;;8.40;93.60;;;;;;5047051;28;20951;-73
2022/03/24 07:13:23;;;;;;;1.50;1.27;;;8.50;93.80;;;;;;5049291;28;20473;-72
2022/03/24 07:15:50;;;;;;;1.50;1.30;;;8.70;93.50;;;;;;5049255;28;20990;-72
2022/03/24 07:18:17;;;;;;;1.50;1.10;;;8.80;92.70;;;;;;5046806;28;20518;-73
2022/03/24 07:20:44;;;;;;;1.50;1.10;;;9.00;92.20;;;;;;5048657;28;20804;-74
2022/03/24 07:23:11;;;;;;;1.50;1.20;;;9.20;91.70;;;;;;5045305;28;20462;-73
2022/03/24 07:25:39;;;;;;;1.50;1.20;;;9.40;90.90;;;;;;5049544;28;20518;-74
2022/03/24 07:28:10;;;;;;;2.33;1.93;;;9.50;90.90;;;;;;5051305;28;20875;-74
2022/03/24 07:30:37;;;;;;;1.50;1.10;;;9.80;90.50;;;;;;5048053;28;20458;-75
2022/03/24 07:33:05;;;;;;;1.50;1.20;;;10.00;89.50;;;;;;5048117;28;20470;-72
2022/03/24 07:35:35;;;;;;;1.50;1.10;;;10.10;89.50;;;;;;5049606;28;20512;-71
2022/03/24 07:38:02;;;;;;;1.50;1.10;;;10.30;88.50;;;;;;5048579;28;20465;-74
2022/03/24 07:40:29;;;;;;;1.50;1.10;;;10.50;88.00;;;;;;5046971;28;20679;-74
2022/03/24 07:42:58;;;;;;;1.50;1.17;;;10.60;87.90;;;;;;5049475;28;20458;-75
2022/03/24 07:45:27;;;;;;;1.50;1.10;;;10.80;87.10;;;;;;5052480;28;21001;-74
2022/03/24 07:48:10;;;;;;;1.60;1.40;;;11.00;86.80;;;;;;5049784;28;20555;-75
2022/03/24 07:50:38;;;;;;;5.70;2.03;;;11.20;86.30;;;;;;5050167;28;20463;-77
2022/03/24 07:53:16;;;;;;;1.50;1.10;;;11.40;86.20;;;;;;5047800;28;20796;-74
2022/03/24 07:55:45;;;;;;;1.50;1.10;;;11.60;85.20;;;;;;5050582;28;20482;-75
2022/03/24 07:58:13;;;;;;;1.50;1.00;;;11.70;84.40;;;;;;5051824;28;20460;-75
2022/03/24 08:00:43;;;;;;;1.50;1.20;;;11.90;83.60;;;;;;5050404;28;20466;-79
2022/03/24 08:03:11;;;;;;;1.50;1.00;;;12.10;82.40;;;;;;5050215;28;20451;-75
2022/03/24 08:05:38;;;;;;;2.93;2.70;;;12.20;81.80;;;;;;5048087;28;20640;-72
2022/03/24 08:08:05;;;;;;;1.50;1.00;;;12.40;82.30;;;;;;5048870;28;20458;-74
2022/03/24 08:10:32;;;;;;;1.50;1.10;;;12.60;80.70;;;;;;5047212;28;20474;-74
2022/03/24 08:12:58;;;;;;;1.50;1.00;;;12.70;80.00;;;;;;5047914;28;20470;-75
2022/03/24 08:15:25;;;;;;;1.50;1.10;;;12.90;79.60;;;;;;5048623;28;20482;-74
2022/03/24 08:17:53;;;;;;;2.03;1.83;;;13.00;79.20;;;;;;5047818;28;20868;-74
2022/03/24 08:20:20;;;;;;;1.50;1.00;;;13.20;77.70;;;;;;5046149;28;20477;-74
2022/03/24 08:22:47;;;;;;;1.60;1.40;;;13.30;77.90;;;;;;5034821;28;20497;-74
2022/03/24 08:25:13;;;;;;;1.50;1.10;;;13.50;77.40;;;;;;5045659;28;20493;-71
2022/03/24 08:27:40;;;;;;;1.50;1.00;;;13.70;76.70;;;;;;5048264;28;20665;-74
2022/03/24 08:30:08;;;;;;;1.60;1.50;;;14.00;76.50;;;;;;5045653;28;20971;-73
2022/03/24 08:32:35;;;;;;;1.50;1.10;;;14.10;75.70;;;;;;5045847;28;20489;-73
2022/03/24 08:35:04;;;;;;;1.50;1.00;;;14.20;75.40;;;;;;5048408;28;20486;-73
2022/03/24 08:37:32;;;;;;;1.70;1.50;;;14.40;75.20;;;;;;5047317;28;20462;-73
2022/03/24 08:39:59;;;;;;;5.20;4.00;;;14.50;75.00;;;;;;5047710;28;20494;-72
2022/03/24 08:42:26;;;;;;;1.50;1.00;;;14.60;75.00;;;;;;5047432;28;20458;-74
2022/03/24 08:44:53;;;;;;;1.50;0.93;;;14.80;74.40;;;;;;5050982;28;20486;-73
2022/03/24 08:47:20;;;;;;;1.47;1.00;;;14.90;74.30;;;;;;5049958;28;20477;-77
2022/03/24 08:49:48;;;;;;;1.50;1.00;;;15.00;73.60;;;;;;5049143;28;20466;-76
2022/03/24 08:52:17;;;;;;;1.50;0.90;;;15.10;73.70;;;;;;5044679;28;20467;-74
2022/03/24 08:54:44;;;;;;;1.47;0.90;;;15.20;71.60;;;;;;5049239;28;20501;-73
2022/03/24 08:57:11;;;;;;;1.47;1.00;;;15.30;71.80;;;;;;5048965;28;20470;-72
2022/03/24 08:59:38;;;;;;;4.30;1.83;;;15.40;71.50;;;;;;5047366;28;20467;-74
2022/03/24 09:02:08;;;;;;;1.50;0.93;;;15.50;71.00;;;;;;5047486;28;20742;-76
2022/03/24 09:04:35;;;;;;;1.50;1.10;;;15.60;70.60;;;;;;5048436;28;20486;-76
2022/03/24 09:07:03;;;;;;;1.50;0.90;;;15.80;69.40;;;;;;5049111;28;20462;-73
2022/03/24 09:09:31;;;;;;;1.50;1.00;;;15.90;67.80;;;;;;5048837;28;20505;-74
2022/03/24 09:11:59;;;;;;;1.47;1.00;;;16.10;68.20;;;;;;5048495;28;20462;-75
2022/03/24 09:14:25;;;;;;;1.50;0.90;;;16.30;68.60;;;;;;5050186;28;20493;-72
2022/03/24 09:16:53;;;;;;;1.50;1.00;;;16.40;67.10;;;;;;5048699;28;20935;-74
2022/03/24 09:19:20;;;;;;;1.43;1.03;;;16.60;66.20;;;;;;5048937;28;20894;-72
2022/03/24 09:21:47;;;;;;;1.50;1.00;;;16.70;65.70;;;;;;5047187;28;20474;-72
2022/03/24 09:24:14;;;;;;;1.50;0.90;;;16.80;66.20;;;;;;5048249;28;20514;-74
2022/03/24 09:26:42;;;;;;;1.50;1.00;;;16.90;65.60;;;;;;5050146;28;20572;-71
2022/03/24 09:29:10;;;;;;;2.37;1.97;;;17.00;65.20;;;;;;5049364;28;20466;-74
2022/03/24 09:31:37;;;;;;;1.50;1.00;;;17.20;66.50;;;;;;5049422;28;20470;-74
2022/03/24 09:34:05;;;;;;;1.50;1.00;;;17.30;65.40;;;;;;5052410;28;20528;-74
2022/03/24 09:36:32;;;;;;;1.50;1.00;;;17.40;64.70;;;;;;5049466;28;20860;-73
2022/03/24 09:38:59;;;;;;;1.50;0.90;;;17.50;66.40;;;;;;5050491;28;20932;-75
2022/03/24 09:41:28;;;;;;;1.47;0.90;;;17.70;67.60;;;;;;5049039;28;20540;-74
2022/03/24 09:43:58;;;;;;;1.47;0.90;;;17.90;65.80;;;;;;5050520;28;20541;-76
2022/03/24 09:46:27;;;;;;;1.50;1.20;;;18.10;64.40;;;;;;5049022;28;20482;-72
2022/03/24 09:48:55;;;;;;;1.50;1.00;;;18.20;66.30;;;;;;5049492;28;20512;-77
2022/03/24 09:51:22;;;;;;;1.47;0.90;;;18.40;66.50;;;;;;5050323;28;20462;-76
2022/03/24 09:53:49;;;;;;;1.50;0.90;;;18.60;67.40;;;;;;5046105;28;20598;-73
2022/03/24 09:56:16;;;;;;;1.43;0.90;;;18.90;66.30;;;;;;5048687;28;20472;-75
2022/03/24 09:58:44;;;;;;;1.50;0.90;;;19.10;64.40;;;;;;5053083;28;21042;-77
2022/03/24 10:01:13;;;;;;;1.50;1.00;;;19.40;63.80;;;;;;5050653;28;20468;-74
2022/03/24 10:03:40;;;;;;;1.47;0.90;;;19.60;63.50;;;;;;5049586;28;20549;-77
2022/03/24 10:06:09;;;;;;;1.50;0.90;;;19.90;63.80;;;;;;5049426;28;20496;-76
2022/03/24 10:08:37;;;;;;;1.50;1.10;;;20.10;61.00;;;;;;5046619;28;20985;-75
2022/03/24 10:11:06;;;;;;;2.33;2.13;;;20.20;60.70;;;;;;5039241;28;20459;-78
2022/03/24 10:13:44;;;;;;;1.50;0.90;;;20.40;60.90;;;;;;5051564;28;20539;-78
2022/03/24 10:16:14;;;;;;;1.50;0.87;;;20.60;60.50;;;;;;5053907;28;21060;-76
2022/03/24 10:18:57;;;;;;;1.50;0.90;;;20.70;57.90;;;;;;5051329;28;20466;-77
2022/03/24 10:21:24;;;;;;;1.50;1.00;;;20.80;59.60;;;;;;5047450;28;20450;-73
2022/03/24 10:23:51;;;;;;;1.47;0.90;;;20.90;59.10;;;;;;5046178;28;20462;-75
2022/03/24 10:26:18;;;;;;;1.43;0.90;;;21.10;58.10;;;;;;5050697;28;20500;-75
2022/03/24 10:28:58;;;;;;;1.50;0.90;;;21.30;58.10;;;;;;5049109;28;20463;-74
2022/03/24 10:31:33;;;;;;;1.47;0.90;;;21.40;58.50;;;;;;5041357;28;20544;-79
2022/03/24 10:34:00;;;;;;;1.47;0.90;;;21.50;58.40;;;;;;5049691;28;20464;-78
2022/03/24 10:36:27;;;;;;;1.50;1.10;;;21.70;57.90;;;;;;5040502;28;20477;-75
2022/03/24 10:38:56;;;;;;;1.50;0.90;;;21.80;57.30;;;;;;5051707;28;20532;-77
2022/03/24 10:41:25;;;;;;;1.47;0.90;;;21.80;57.30;;;;;;5050240;28;20930;-75
2022/03/24 10:43:53;;;;;;;1.43;0.90;;;21.80;57.80;;;;;;5049863;28;20944;-77
2022/03/24 10:46:22;;;;;;;1.47;0.83;;;21.80;57.30;;;;;;5051383;28;20482;-77
2022/03/24 10:48:52;;;;;;;1.50;0.90;;;21.80;57.30;;;;;;5053474;28;20483;-75
2022/03/24 10:51:23;;;;;;;1.50;1.00;;;21.90;57.20;;;;;;5053608;28;20458;-76
2022/03/24 10:53:51;;;;;;;1.47;0.90;;;22.00;58.50;;;;;;5053929;28;20465;-76
2022/03/24 10:56:21;;;;;;;1.97;1.77;;;22.20;56.60;;;;;;5053983;28;20560;-80
2022/03/24 10:58:54;;;;;;;1.43;0.90;;;22.30;57.60;;;;;;5056629;28;20458;-75
2022/03/24 11:01:22;;;;;;;1.50;0.90;;;22.50;57.80;;;;;;5050213;28;20469;-79
2022/03/24 11:03:51;;;;;;;3.20;3.00;;;22.50;58.10;;;;;;5051537;28;20489;-80
2022/03/24 11:06:22;;;;;;;1.50;0.90;;;22.70;56.60;;;;;;5052008;28;20496;-76
2022/03/24 11:08:52;;;;;;;1.47;0.90;;;22.80;56.50;;;;;;5058241;28;20527;-75
2022/03/24 11:11:20;;;;;;;1.43;0.90;;;22.70;55.70;;;;;;5055972;28;20462;-79
2022/03/24 11:13:51;;;;;;;1.50;0.90;;;22.70;57.00;;;;;;5056151;28;20974;-77
2022/03/24 11:16:19;;;;;;;1.50;0.90;;;22.80;56.00;;;;;;5046169;28;20493;-76
2022/03/24 11:18:48;;;;;;;1.50;0.90;;;23.00;55.80;;;;;;5048387;28;21000;-79
2022/03/24 11:21:21;;;;;;;1.50;0.90;;;23.20;56.30;;;;;;5052282;28;20929;-74
2022/03/24 11:23:50;;;;;;;1.47;0.90;;;23.40;55.20;;;;;;5049739;28;20455;-72
2022/03/24 11:26:17;;;;;;;1.50;0.90;;;23.50;54.50;;;;;;5049555;28;20490;-73
2022/03/24 11:28:46;;;;;;;1.70;1.30;;;23.50;53.90;;;;;;5049172;28;20894;-73
2022/03/24 11:31:15;;;;;;;1.47;0.90;;;23.60;53.90;;;;;;5047375;28;20836;-73
2022/03/24 11:33:44;;;;;;;1.47;0.90;;;23.60;53.80;;;;;;5050798;28;20466;-75
2022/03/24 11:36:13;;;;;;;1.40;0.80;;;23.80;54.90;;;;;;5049547;28;20986;-74
2022/03/24 11:38:42;;;;;;;1.40;0.90;;;23.90;54.60;;;;;;5050176;28;20473;-75
2022/03/24 11:41:16;;;;;;;1.50;1.10;;;24.00;53.50;;;;;;5047805;28;20463;-75
2022/03/24 11:43:50;;;;;;;1.80;1.47;;;24.10;52.30;;;;;;5054919;28;21128;-78
2022/03/24 11:46:27;;;;;;;1.47;0.90;;;24.10;52.00;;;;;;5051944;28;20491;-76
2022/03/24 11:49:16;;;;;;;1.50;0.90;;;24.10;51.70;;;;;;5054256;28;20458;-74
2022/03/24 11:51:44;;;;;;;1.40;0.90;;;24.20;53.30;;;;;;5040594;28;20561;-81
2022/03/24 11:54:12;;;;;;;1.50;0.90;;;24.20;52.20;;;;;;5048373;28;20553;-74
2022/03/24 11:56:39;;;;;;;1.50;1.20;;;24.20;51.40;;;;;;5048456;28;20669;-74
2022/03/24 11:59:19;;;;;;;1.43;0.90;;;24.20;50.80;;;;;;5050588;28;20462;-75
2022/03/24 12:01:46;;;;;;;1.47;0.80;;;24.10;50.30;;;;;;5049102;28;20473;-73
2022/03/24 12:04:14;;;;;;;1.47;0.80;;;23.90;51.90;;;;;;5048350;28;20486;-77
2022/03/24 12:06:54;;;;;;;1.50;0.90;;;23.90;51.50;;;;;;5049807;28;20486;-76
2022/03/24 12:09:26;;;;;;;1.50;1.00;;;23.80;49.60;;;;;;5048290;28;20470;-76
2022/03/24 12:12:06;;;;;;;1.50;1.00;;;23.80;52.00;;;;;;5051245;28;20466;-74
2022/03/24 12:14:45;;;;;;;1.60;1.10;;;23.80;49.50;;;;;;5048415;28;20489;-76
2022/03/24 12:17:22;;;;;;;1.50;0.90;;;23.70;50.20;;;;;;5043189;28;20992;-74
2022/03/24 12:19:50;;;;;;;1.40;0.90;;;23.80;49.00;;;;;;5047552;28;20486;-74
2022/03/24 12:22:44;;;;;;;1.50;0.90;;;23.80;50.30;;;;;;5049091;28;20482;-76
2022/03/24 12:25:32;;;;;;;1.50;0.90;;;23.80;49.30;;;;;;5031334;28;20485;-77
2022/03/24 12:28:27;;;;;;;1.40;0.90;;;23.90;47.80;;;;;;5047302;28;20530;-73
2022/03/24 12:31:06;;;;;;;1.60;1.00;;;23.80;47.80;;;;;;5036093;28;20974;-73
2022/03/24 12:33:43;;;;;;;1.47;0.87;;;23.70;48.70;;;;;;5048497;28;20468;-78
2022/03/24 12:36:13;;;;;;;1.50;1.00;;;23.70;48.50;;;;;;5048954;28;20485;-74
2022/03/24 12:38:43;;;;;;;1.50;0.90;;;23.90;49.80;;;;;;5049524;28;20985;-74
2022/03/24 12:41:22;;;;;;;1.40;0.90;;;24.10;49.60;;;;;;5036795;28;20508;-77
2022/03/24 12:43:55;;;;;;;1.50;0.80;;;24.00;49.30;;;;;;5046691;28;20469;-73
2022/03/24 12:46:25;;;;;;;1.40;0.90;;;24.10;50.20;;;;;;5045998;28;20481;-78
2022/03/24 12:48:53;;;;;;;1.50;1.07;;;24.00;48.80;;;;;;5047583;28;20477;-75
2022/03/24 12:51:22;;;;;;;1.43;0.90;;;24.00;47.70;;;;;;5050041;28;20469;-76
2022/03/24 12:53:51;;;;;;;1.40;0.80;;;24.00;48.60;;;;;;5046722;28;20458;-76
2022/03/24 12:56:26;;;;;;;1.40;0.87;;;24.10;47.40;;;;;;5047470;28;21009;-75
2022/03/24 12:58:55;;;;;;;1.43;0.80;;;24.10;50.10;;;;;;5050154;28;20889;-78
2022/03/24 13:01:22;;;;;;;1.50;1.10;;;24.10;47.70;;;;;;5046842;28;20576;-75
2022/03/24 13:03:57;;;;;;;1.50;0.90;;;24.10;49.10;;;;;;5049429;28;20480;-74